createdAt,value
2019-01-26T00:00:33.340Z,80.73
2019-01-26T00:03:03.889Z,80.52
2019-01-26T00:05:34.356Z,80.92
2019-01-26T00:08:04.960Z,80.76
2019-01-26T00:10:35.613Z,80.98
2019-01-26T00:13:06.178Z,81.18
2019-01-26T00:15:36.724Z,80.88
2019-01-26T00:18:07.357Z,81.14
2019-01-26T00:20:37.816Z,81.53
2019-01-26T00:23:08.279Z,81.66
2019-01-26T00:25:38.844Z,81.72
2019-01-26T00:28:09.310Z,81.86
2019-01-26T00:30:39.904Z,81.98
2019-01-26T00:33:10.590Z,81.81
2019-01-26T00:35:41.136Z,82.02
2019-01-26T00:38:11.803Z,82.03
2019-01-26T00:40:42.318Z,81.99
2019-01-26T00:43:12.774Z,81.95
2019-01-26T00:45:43.271Z,81.91
2019-01-26T00:48:13.733Z,81.98
2019-01-26T00:50:44.235Z,81.54
2019-01-26T00:53:14.858Z,81.38
2019-01-26T00:55:45.324Z,81.42
2019-01-26T00:58:15.920Z,81.41
2019-01-26T01:00:46.433Z,81.23
2019-01-26T01:03:16.937Z,81.57
2019-01-26T01:05:47.437Z,81.50
2019-01-26T01:08:18.040Z,81.28
2019-01-26T01:10:48.512Z,81.23
2019-01-26T01:13:19.119Z,80.96
2019-01-26T01:15:49.724Z,81.14
2019-01-26T01:18:20.182Z,80.93
2019-01-26T01:20:50.857Z,81.64
2019-01-26T01:23:21.312Z,81.53
2019-01-26T01:25:51.793Z,81.80
2019-01-26T01:28:22.248Z,82.78
2019-01-26T01:30:52.744Z,82.81
2019-01-26T01:33:23.210Z,82.71
2019-01-26T01:35:53.708Z,82.45
2019-01-26T01:38:24.199Z,82.20
2019-01-26T01:40:54.752Z,82.08
2019-01-26T01:43:25.344Z,82.34
2019-01-26T01:45:55.832Z,82.25
2019-01-26T01:48:26.436Z,82.62
2019-01-26T01:50:56.901Z,82.28
2019-01-26T01:53:27.502Z,82.17
2019-01-26T01:55:57.959Z,82.15
2019-01-26T01:58:28.466Z,82.10
2019-01-26T02:00:58.935Z,82.03
2019-01-26T02:03:29.392Z,82.08
2019-01-26T02:05:59.884Z,82.11
2019-01-26T02:08:30.349Z,82.12
2019-01-26T02:11:00.849Z,82.66
2019-01-26T02:13:31.318Z,82.35
2019-01-26T02:16:01.872Z,82.31
2019-01-26T02:18:32.374Z,82.06
2019-01-26T02:21:05.019Z,82.10
2019-01-26T02:23:35.513Z,82.31
2019-01-26T02:26:06.176Z,82.06
2019-01-26T02:28:36.694Z,81.52
2019-01-26T02:31:07.399Z,81.60
2019-01-26T02:33:37.939Z,81.47
2019-01-26T02:36:08.448Z,80.59
2019-01-26T02:38:38.953Z,80.97
2019-01-26T02:41:09.506Z,80.95
2019-01-26T02:43:40.000Z,80.81
2019-01-26T02:46:10.499Z,80.28
2019-01-26T02:48:40.952Z,80.06
2019-01-26T02:51:11.547Z,79.68
2019-01-26T02:53:42.002Z,79.84
2019-01-26T02:56:12.610Z,79.80
2019-01-26T02:58:43.081Z,79.64
2019-01-26T03:01:13.543Z,79.43
2019-01-26T03:03:44.057Z,79.44
2019-01-26T03:06:14.527Z,79.34
2019-01-26T03:08:45.085Z,79.45
2019-01-26T03:11:15.578Z,78.78
2019-01-26T03:13:46.018Z,79.62
2019-01-26T03:16:16.513Z,79.57
2019-01-26T03:18:46.984Z,79.39
2019-01-26T03:21:17.552Z,79.16
2019-01-26T03:23:48.226Z,79.29
2019-01-26T03:26:18.711Z,79.27
2019-01-26T03:28:49.215Z,79.15
2019-01-26T03:31:19.678Z,79.10
2019-01-26T03:33:50.178Z,78.69
2019-01-26T03:36:23.635Z,78.64
2019-01-26T03:38:54.771Z,78.65
2019-01-26T03:41:25.369Z,78.70
2019-01-26T03:43:55.872Z,78.84
2019-01-26T03:46:26.335Z,78.77
2019-01-26T03:48:56.788Z,78.66
2019-01-26T03:51:27.246Z,78.77
2019-01-26T03:53:57.838Z,78.68
2019-01-26T03:56:28.406Z,78.08
2019-01-26T03:58:59.194Z,78.13
2019-01-26T04:01:29.760Z,78.59
2019-01-26T04:04:00.465Z,78.11
2019-01-26T04:06:31.069Z,78.30
2019-01-26T04:09:01.544Z,78.09
2019-01-26T04:11:32.041Z,78.32
2019-01-26T04:14:02.503Z,78.32
2019-01-26T04:16:32.999Z,78.42
2019-01-26T04:19:03.555Z,78.11
2019-01-26T04:21:34.040Z,78.14
2019-01-26T04:24:04.644Z,78.58
2019-01-26T04:26:35.133Z,78.30
2019-01-26T04:29:05.688Z,78.35
2019-01-26T04:31:36.186Z,77.91
2019-01-26T04:34:06.659Z,77.63
2019-01-26T04:36:37.166Z,77.41
2019-01-26T04:39:09.367Z,77.11
2019-01-26T04:41:39.827Z,77.19
2019-01-26T04:44:10.332Z,77.49
2019-01-26T04:46:40.820Z,77.64
2019-01-26T04:49:11.322Z,77.26
2019-01-26T04:51:41.779Z,77.13
2019-01-26T04:54:12.279Z,77.24
2019-01-26T04:56:42.743Z,77.09
2019-01-26T04:59:13.214Z,77.09
2019-01-26T05:01:43.771Z,76.96
2019-01-26T05:04:14.237Z,76.83
2019-01-26T05:06:44.733Z,77.17
2019-01-26T05:09:15.192Z,77.07
2019-01-26T05:11:45.681Z,76.97
2019-01-26T05:14:16.167Z,77.10
2019-01-26T05:16:46.627Z,76.85
2019-01-26T05:19:17.127Z,76.62
2019-01-26T05:21:47.585Z,76.41
2019-01-26T05:24:18.080Z,76.12
2019-01-26T05:26:48.531Z,76.25
2019-01-26T05:29:18.984Z,76.47
2019-01-26T05:31:49.466Z,76.06
2019-01-26T05:34:19.964Z,76.26
2019-01-26T05:36:50.428Z,76.31
2019-01-26T05:39:20.930Z,76.17
2019-01-26T05:41:51.391Z,76.33
2019-01-26T05:44:21.902Z,76.20
2019-01-26T05:46:52.572Z,75.83
2019-01-26T05:49:23.023Z,75.99
2019-01-26T05:51:53.521Z,75.96
2019-01-26T05:54:24.017Z,75.98
2019-01-26T05:56:54.518Z,76.02
2019-01-26T05:59:24.981Z,75.99
2019-01-26T06:01:55.479Z,75.71
2019-01-26T06:04:25.985Z,75.82
2019-01-26T06:06:56.489Z,75.68
2019-01-26T06:09:26.993Z,75.51
2019-01-26T06:11:57.450Z,75.62
2019-01-26T06:14:27.892Z,75.39
2019-01-26T06:16:58.403Z,75.46
2019-01-26T06:19:28.848Z,75.29
2019-01-26T06:21:59.300Z,75.22
2019-01-26T06:24:29.843Z,75.46
2019-01-26T06:27:00.305Z,75.11
2019-01-26T06:29:30.796Z,74.96
2019-01-26T06:32:01.260Z,75.23
2019-01-26T06:34:31.725Z,75.15
2019-01-26T06:37:02.192Z,75.36
2019-01-26T06:39:32.693Z,75.29
2019-01-26T06:42:03.152Z,75.40
2019-01-26T06:44:33.652Z,75.18
2019-01-26T06:47:04.103Z,75.02
2019-01-26T06:49:34.710Z,75.19
2019-01-26T06:52:05.491Z,75.08
2019-01-26T06:54:35.989Z,75.22
2019-01-26T06:57:06.564Z,75.24
2019-01-26T06:59:37.054Z,75.31
2019-01-26T07:02:08.001Z,75.37
2019-01-26T07:04:52.851Z,75.35
2019-01-26T07:07:23.310Z,75.11
2019-01-26T07:09:53.813Z,74.79
2019-01-26T07:12:24.324Z,74.59
2019-01-26T07:14:54.790Z,74.93
2019-01-26T07:17:25.256Z,75.07
2019-01-26T07:19:55.756Z,74.93
2019-01-26T07:22:26.215Z,74.71
2019-01-26T07:24:56.809Z,74.78
2019-01-26T07:27:27.272Z,75.03
2019-01-26T07:29:57.778Z,74.80
2019-01-26T07:32:28.237Z,74.50
2019-01-26T07:34:58.744Z,74.63
2019-01-26T07:37:29.192Z,74.74
2019-01-26T07:39:59.844Z,74.89
2019-01-26T07:42:30.320Z,75.10
2019-01-26T07:45:00.784Z,74.99
2019-01-26T07:47:31.286Z,75.32
2019-01-26T07:50:01.762Z,75.19
2019-01-26T07:52:32.273Z,74.97
2019-01-26T07:55:02.721Z,75.21
2019-01-26T07:57:33.199Z,75.23
2019-01-26T08:00:03.946Z,75.36
2019-01-26T08:02:34.478Z,75.38
2019-01-26T08:05:05.873Z,75.37
2019-01-26T08:07:36.346Z,75.24
2019-01-26T08:10:10.008Z,75.28
2019-01-26T08:12:40.461Z,75.49
2019-01-26T08:15:13.250Z,75.08
2019-01-26T08:17:43.794Z,75.33
2019-01-26T08:20:16.631Z,75.49
2019-01-26T08:22:47.235Z,75.85
2019-01-26T08:25:17.965Z,75.90
2019-01-26T08:27:48.522Z,75.97
2019-01-26T08:30:20.907Z,75.74
2019-01-26T08:32:51.657Z,75.50
2019-01-26T08:35:22.257Z,75.37
2019-01-26T08:37:52.861Z,75.28
2019-01-26T08:40:23.533Z,75.33
2019-01-26T08:42:54.142Z,75.47
2019-01-26T08:45:24.620Z,75.28
2019-01-26T08:47:55.231Z,75.35
2019-01-26T08:50:26.481Z,75.11
2019-01-26T08:52:56.941Z,75.20
2019-01-26T08:55:27.393Z,75.03
2019-01-26T08:57:57.999Z,75.15
2019-01-26T09:00:29.142Z,75.37
2019-01-26T09:03:18.449Z,75.15
2019-01-26T09:06:07.991Z,75.05
2019-01-26T09:08:38.718Z,75.20
2019-01-26T09:11:09.256Z,75.39
2019-01-26T09:13:39.763Z,75.36
2019-01-26T09:16:10.540Z,75.62
2019-01-26T09:18:41.015Z,75.68
2019-01-26T09:21:11.529Z,75.52
2019-01-26T09:23:42.098Z,75.52
2019-01-26T09:26:12.606Z,75.63
2019-01-26T09:28:43.066Z,75.48
2019-01-26T09:31:13.691Z,75.40
2019-01-26T09:33:44.169Z,75.74
2019-01-26T09:36:14.774Z,75.69
2019-01-26T09:38:45.237Z,75.94
2019-01-26T09:41:15.861Z,75.35
2019-01-26T09:43:46.465Z,75.86
2019-01-26T09:46:16.964Z,76.10
2019-01-26T09:48:47.420Z,74.55
2019-01-26T09:51:17.909Z,73.36
2019-01-26T09:53:48.359Z,72.34
2019-01-26T09:56:18.863Z,71.06
2019-01-26T09:58:49.336Z,72.22
2019-01-26T10:01:19.827Z,72.58
2019-01-26T10:03:50.331Z,73.21
2019-01-26T10:06:20.924Z,74.87
2019-01-26T10:08:51.408Z,76.19
2019-01-26T10:11:21.973Z,76.42
2019-01-26T10:13:52.469Z,75.69
2019-01-26T10:16:23.027Z,76.70
2019-01-26T10:18:54.027Z,77.00
2019-01-26T10:21:24.620Z,77.04
2019-01-26T10:23:55.077Z,77.50
2019-01-26T10:26:25.595Z,77.32
2019-01-26T10:28:56.104Z,76.74
2019-01-26T10:31:26.569Z,78.26
2019-01-26T10:33:57.064Z,78.64
2019-01-26T10:36:32.989Z,78.89
2019-01-26T10:39:09.246Z,78.17
2019-01-26T10:42:04.696Z,78.69
2019-01-26T10:44:35.822Z,78.32
2019-01-26T10:47:06.816Z,78.48
2019-01-26T10:49:37.278Z,78.58
2019-01-26T10:52:08.130Z,77.69
2019-01-26T10:54:38.678Z,77.36
2019-01-26T10:57:09.340Z,77.97
2019-01-26T10:59:39.930Z,77.27
2019-01-26T11:02:10.599Z,77.87
2019-01-26T11:04:41.061Z,77.12
2019-01-26T11:07:12.997Z,76.51
2019-01-26T11:09:43.531Z,76.38
2019-01-26T11:12:13.992Z,77.19
2019-01-26T11:14:44.588Z,76.99
2019-01-26T11:17:15.086Z,77.22
2019-01-26T11:19:45.584Z,77.12
2019-01-26T11:22:16.143Z,77.86
2019-01-26T11:24:46.645Z,77.08
2019-01-26T11:27:17.225Z,77.40
2019-01-26T11:29:47.745Z,77.77
2019-01-26T11:32:18.340Z,77.77
2019-01-26T11:34:48.803Z,77.75
2019-01-26T11:37:19.253Z,77.53
2019-01-26T11:39:57.203Z,77.76
2019-01-26T11:42:28.050Z,76.60
2019-01-26T11:45:17.384Z,76.51
2019-01-26T11:47:47.844Z,76.94
2019-01-26T11:50:24.208Z,76.20
2019-01-26T11:52:54.653Z,76.08
2019-01-26T11:55:36.516Z,76.37
2019-01-26T11:58:07.070Z,76.54
2019-01-26T12:01:05.498Z,76.12
2019-01-26T12:03:53.228Z,76.09
2019-01-26T12:06:33.080Z,76.38
2019-01-26T12:09:05.879Z,76.33
2019-01-26T12:11:37.481Z,76.45
2019-01-26T12:14:08.079Z,76.43
2019-01-26T12:16:38.542Z,76.24
2019-01-26T12:19:09.035Z,75.52
2019-01-26T12:21:39.487Z,76.63
2019-01-26T12:24:09.942Z,76.19
2019-01-26T12:26:40.446Z,76.11
2019-01-26T12:29:10.902Z,75.74
2019-01-26T12:31:41.398Z,75.79
2019-01-26T12:34:11.850Z,75.19
2019-01-26T12:36:42.446Z,75.99
2019-01-26T12:39:13.300Z,75.80
2019-01-26T12:41:43.764Z,75.76
2019-01-26T12:44:14.206Z,76.00
2019-01-26T12:46:44.808Z,75.94
2019-01-26T12:49:15.357Z,74.52
2019-01-26T12:51:45.956Z,74.84
2019-01-26T12:54:16.471Z,73.98
2019-01-26T12:56:46.921Z,74.61
2019-01-26T12:59:17.388Z,74.97
2019-01-26T13:01:47.980Z,75.90
2019-01-26T13:04:18.530Z,76.41
2019-01-26T13:06:49.046Z,75.97
2019-01-26T13:09:19.495Z,75.59
2019-01-26T13:11:50.000Z,75.09
2019-01-26T13:14:20.502Z,75.18
2019-01-26T13:16:51.061Z,75.14
2019-01-26T13:19:21.902Z,75.36
2019-01-26T13:21:52.359Z,75.56
2019-01-26T13:24:22.851Z,75.05
2019-01-26T13:26:53.304Z,75.06
2019-01-26T13:29:23.941Z,75.51
2019-01-26T13:31:54.398Z,75.09
2019-01-26T13:34:24.875Z,74.14
2019-01-26T13:36:55.325Z,74.02
2019-01-26T13:39:25.834Z,73.86
2019-01-26T13:41:56.295Z,74.53
2019-01-26T13:44:26.807Z,74.42
2019-01-26T13:46:57.252Z,74.01
2019-01-26T13:49:27.710Z,74.51
2019-01-26T13:51:58.163Z,74.58
2019-01-26T13:54:28.655Z,74.03
2019-01-26T13:56:59.155Z,73.86
2019-01-26T13:59:29.666Z,73.87
2019-01-26T14:02:00.127Z,74.24
2019-01-26T14:04:30.619Z,74.93
2019-01-26T14:07:01.230Z,74.46
2019-01-26T14:09:31.687Z,74.53
2019-01-26T14:12:02.181Z,74.98
2019-01-26T14:14:32.635Z,75.50
2019-01-26T14:17:03.235Z,75.78
2019-01-26T14:19:33.828Z,75.08
2019-01-26T14:22:04.498Z,74.75
2019-01-26T14:24:35.001Z,74.58
2019-01-26T14:27:05.601Z,74.55
2019-01-26T14:29:36.110Z,74.46
2019-01-26T14:32:06.773Z,75.00
2019-01-26T14:34:37.276Z,75.45
2019-01-26T14:37:07.790Z,75.31
2019-01-26T14:39:39.791Z,75.77
2019-01-26T14:42:10.445Z,76.05
2019-01-26T14:44:40.948Z,75.56
2019-01-26T14:47:11.463Z,76.61
2019-01-26T14:49:42.057Z,76.52
2019-01-26T14:52:12.602Z,76.08
2019-01-26T14:54:43.064Z,75.62
2019-01-26T14:57:13.580Z,75.23
2019-01-26T14:59:44.071Z,75.42
2019-01-26T15:02:14.526Z,75.08
2019-01-26T15:04:44.988Z,76.24
2019-01-26T15:07:15.454Z,76.38
2019-01-26T15:09:45.993Z,76.31
2019-01-26T15:12:16.495Z,76.78
2019-01-26T15:14:47.005Z,76.47
2019-01-26T15:17:17.514Z,76.81
2019-01-26T15:19:48.067Z,76.99
2019-01-26T15:22:18.540Z,76.88
2019-01-26T15:24:49.111Z,76.96
2019-01-26T15:27:19.610Z,77.05
2019-01-26T15:29:50.065Z,76.96
2019-01-26T15:32:20.624Z,77.29
2019-01-26T15:34:51.220Z,76.80
2019-01-26T15:37:21.718Z,77.20
2019-01-26T15:39:52.224Z,78.16
2019-01-26T15:42:22.725Z,77.45
2019-01-26T15:44:53.216Z,77.83
2019-01-26T15:47:23.684Z,77.72
2019-01-26T15:49:54.177Z,77.87
2019-01-26T15:52:24.628Z,76.96
2019-01-26T15:54:55.099Z,77.26
2019-01-26T15:57:25.684Z,76.91
2019-01-26T15:59:56.134Z,76.96
2019-01-26T16:02:26.686Z,76.08
2019-01-26T16:04:57.172Z,77.06
2019-01-26T16:07:27.724Z,76.72
2019-01-26T16:09:58.223Z,76.28
2019-01-26T16:12:28.719Z,76.55
2019-01-26T16:14:59.212Z,76.62
2019-01-26T16:17:29.680Z,76.44
2019-01-26T16:20:00.258Z,76.21
2019-01-26T16:22:30.718Z,76.03
2019-01-26T16:25:01.192Z,76.84
2019-01-26T16:27:31.726Z,77.12
2019-01-26T16:30:02.180Z,76.92
2019-01-26T16:32:32.811Z,76.92
2019-01-26T16:35:03.374Z,76.41
2019-01-26T16:37:33.884Z,76.40
2019-01-26T16:40:05.428Z,75.91
2019-01-26T16:42:35.931Z,75.75
2019-01-26T16:45:08.671Z,76.47
2019-01-26T16:47:39.125Z,76.22
2019-01-26T16:50:12.848Z,76.70
2019-01-26T16:52:43.373Z,76.27
2019-01-26T16:55:14.239Z,76.12
2019-01-26T16:57:44.788Z,76.48
2019-01-26T17:00:21.463Z,76.07
2019-01-26T17:02:52.017Z,76.45
2019-01-26T17:05:25.875Z,76.10
2019-01-26T17:07:54.779Z,75.83
2019-01-26T17:10:25.586Z,75.37
2019-01-26T17:12:56.189Z,76.05
2019-01-26T17:15:26.650Z,76.01
2019-01-26T17:17:57.249Z,75.83
2019-01-26T17:20:34.890Z,75.05
2019-01-26T17:23:01.570Z,75.33
2019-01-26T17:25:32.172Z,75.48
2019-01-26T17:28:02.633Z,74.25
2019-01-26T17:30:36.328Z,74.33
2019-01-26T17:33:07.768Z,74.66
2019-01-26T17:35:38.584Z,74.39
2019-01-26T17:38:09.286Z,74.40
2019-01-26T17:40:39.739Z,73.76
2019-01-26T17:43:10.234Z,74.53
2019-01-26T17:45:40.681Z,74.32
2019-01-26T17:48:11.389Z,73.41
2019-01-26T17:50:42.547Z,74.30
2019-01-26T17:53:13.142Z,74.48
2019-01-26T17:55:43.655Z,74.21
2019-01-26T17:58:14.119Z,73.95
2019-01-26T18:01:01.709Z,74.08
2019-01-26T18:03:32.208Z,73.61
2019-01-26T18:06:02.671Z,73.53
2019-01-26T18:08:33.160Z,73.38
2019-01-26T18:11:03.618Z,73.72
2019-01-26T18:13:34.208Z,73.32
2019-01-26T18:16:04.672Z,73.70
2019-01-26T18:18:35.255Z,73.35
2019-01-26T18:21:05.960Z,73.82
2019-01-26T18:23:36.452Z,74.21
2019-01-26T18:26:07.532Z,74.21
2019-01-26T18:28:38.048Z,72.93
2019-01-26T18:31:08.646Z,72.66
2019-01-26T18:33:39.113Z,72.99
2019-01-26T18:36:09.679Z,73.21
2019-01-26T18:38:40.148Z,73.41
2019-01-26T18:41:10.824Z,73.46
2019-01-26T18:43:41.281Z,72.58
2019-01-26T18:46:11.893Z,72.94
2019-01-26T18:48:42.388Z,73.26
2019-01-26T18:51:13.764Z,72.64
2019-01-26T18:53:44.235Z,73.60
2019-01-26T18:56:14.703Z,73.64
2019-01-26T18:58:45.167Z,73.09
2019-01-26T19:01:15.678Z,73.81
2019-01-26T19:04:17.450Z,73.76
2019-01-26T19:06:47.956Z,73.57
2019-01-26T19:09:18.421Z,73.30
2019-01-26T19:11:48.913Z,72.59
2019-01-26T19:14:19.356Z,72.44
2019-01-26T19:16:49.847Z,72.10
2019-01-26T19:19:20.450Z,71.86
2019-01-26T19:21:51.053Z,71.61
2019-01-26T19:24:21.600Z,71.86
2019-01-26T19:26:52.102Z,71.21
2019-01-26T19:29:22.560Z,70.68
2019-01-26T19:31:53.170Z,70.69
2019-01-26T19:34:23.627Z,70.29
2019-01-26T19:36:54.222Z,70.36
2019-01-26T19:39:24.680Z,69.87
2019-01-26T19:41:55.185Z,69.41
2019-01-26T19:44:25.649Z,69.15
2019-01-26T19:46:56.157Z,69.37
2019-01-26T19:49:26.615Z,69.05
2019-01-26T19:51:57.216Z,68.17
2019-01-26T19:54:27.687Z,68.56
2019-01-26T19:56:58.182Z,68.10
2019-01-26T19:59:28.642Z,67.66
2019-01-26T20:01:59.445Z,67.99
2019-01-26T20:04:30.085Z,67.99
2019-01-26T20:07:00.662Z,67.01
2019-01-26T20:09:31.173Z,67.94
2019-01-26T20:12:01.830Z,67.26
2019-01-26T20:14:32.284Z,66.60
2019-01-26T20:17:03.015Z,66.02
2019-01-26T20:19:33.611Z,66.65
2019-01-26T20:22:04.201Z,66.30
2019-01-26T20:24:34.813Z,66.11
2019-01-26T20:27:05.473Z,65.77
2019-01-26T20:29:35.937Z,65.50
2019-01-26T20:32:06.386Z,65.59
2019-01-26T20:34:36.901Z,66.08
2019-01-26T20:37:07.412Z,65.67
2019-01-26T20:39:37.909Z,66.01
2019-01-26T20:42:08.373Z,66.08
2019-01-26T20:44:38.832Z,66.67
2019-01-26T20:47:09.327Z,65.98
2019-01-26T20:49:39.821Z,66.59
2019-01-26T20:52:10.273Z,66.74
2019-01-26T20:54:40.767Z,66.52
2019-01-26T20:57:11.231Z,66.32
2019-01-26T20:59:41.735Z,65.80
2019-01-26T21:02:12.200Z,66.50
2019-01-26T21:04:42.708Z,65.90
2019-01-26T21:07:20.296Z,66.01
2019-01-26T21:09:50.788Z,66.19
2019-01-26T21:12:21.239Z,65.75
2019-01-26T21:14:51.750Z,66.27
2019-01-26T21:17:23.511Z,66.18
2019-01-26T21:19:54.073Z,65.57
2019-01-26T21:22:24.552Z,65.53
2019-01-26T21:24:55.042Z,65.11
2019-01-26T21:27:25.532Z,65.23
2019-01-26T21:29:56.040Z,64.61
2019-01-26T21:32:26.498Z,65.23
2019-01-26T21:34:56.966Z,64.45
2019-01-26T21:37:27.465Z,64.52
2019-01-26T21:39:57.941Z,65.24
2019-01-26T21:42:28.408Z,65.17
2019-01-26T21:44:59.013Z,64.43
2019-01-26T21:47:29.460Z,63.98
2019-01-26T21:49:59.948Z,63.59
2019-01-26T21:52:30.415Z,64.31
2019-01-26T21:55:00.922Z,64.04
2019-01-26T21:57:31.378Z,63.46
2019-01-26T22:00:01.868Z,62.87
2019-01-26T22:02:32.324Z,62.62
2019-01-26T22:05:02.825Z,62.75
2019-01-26T22:07:33.281Z,63.32
2019-01-26T22:10:05.069Z,62.62
2019-01-26T22:12:35.581Z,62.81
2019-01-26T22:15:08.357Z,63.28
2019-01-26T22:17:38.866Z,63.05
2019-01-26T22:20:12.207Z,63.49
2019-01-26T22:22:42.776Z,63.22
2019-01-26T22:25:13.981Z,63.03
2019-01-26T22:27:44.540Z,62.66
2019-01-26T22:30:26.597Z,63.14
2019-01-26T22:32:57.154Z,62.80
2019-01-26T22:35:27.759Z,62.78
2019-01-26T22:37:58.800Z,62.61
2019-01-26T22:40:31.338Z,61.99
2019-01-26T22:43:02.032Z,62.58
2019-01-26T22:45:32.706Z,61.61
2019-01-26T22:48:03.190Z,61.21
2019-01-26T22:50:33.890Z,61.53
2019-01-26T22:53:04.649Z,61.80
2019-01-26T22:55:35.342Z,61.89
2019-01-26T22:58:06.441Z,61.38
2019-01-26T23:01:09.243Z,61.57
2019-01-26T23:04:07.050Z,62.15
2019-01-26T23:07:13.735Z,61.07
2019-01-26T23:10:19.320Z,61.16
2019-01-26T23:13:01.158Z,62.24
2019-01-26T23:16:11.021Z,61.49
2019-01-26T23:19:09.004Z,61.66
2019-01-26T23:22:33.993Z,62.22
2019-01-26T23:25:30.908Z,62.98
2019-01-26T23:28:25.889Z,62.77
2019-01-26T23:31:16.816Z,63.08
2019-01-26T23:33:49.819Z,62.96
2019-01-26T23:36:20.531Z,64.70
2019-01-26T23:38:52.421Z,65.16
2019-01-26T23:41:22.935Z,65.31
2019-01-26T23:43:54.619Z,64.75
2019-01-26T23:46:25.181Z,65.33
2019-01-26T23:48:55.679Z,64.83
2019-01-26T23:51:26.235Z,64.15
2019-01-26T23:53:56.743Z,63.97
2019-01-26T23:56:27.205Z,63.65
2019-01-26T23:58:57.812Z,63.67
